Time;durP1;ratioP1;P1;durP2;ratioP2;P2;SDS_P1;SDS_P2;PMS_P1;PMS_P2;Temp;Humidity;BMP_temperature;BMP_pressure;BME280_temperature;BME280_humidity;BME280_pressure;Samples;Min_cycle;Max_cycle;Signal;HPM_P1;HPM_P2
2023/07/05 00:01:08;;;;;;;10.75;6.45;;;;;;;15.63;62.32;100748.09;7393641;19;20019;-68
2023/07/05 00:03:36;;;;;;;11.52;7.00;;;;;;;15.60;62.81;100750.00;7393913;19;20094;-68
2023/07/05 00:06:07;;;;;;;10.52;6.68;;;;;;;15.55;62.72;100739.63;7395217;19;20422;-68
2023/07/05 00:08:39;;;;;;;11.48;6.40;;;;;;;15.53;63.08;100741.50;7395162;19;20025;-68
2023/07/05 00:11:12;;;;;;;9.95;6.63;;;;;;;15.49;63.51;100739.88;7395145;19;20018;-68
2023/07/05 00:13:42;;;;;;;10.68;7.15;;;;;;;15.48;63.47;100740.84;7394249;19;20015;-68
2023/07/05 00:16:12;;;;;;;10.63;6.85;;;;;;;15.44;63.58;100740.09;7393755;19;20082;-69
2023/07/05 00:18:41;;;;;;;10.75;7.47;;;;;;;15.42;63.66;100734.00;7395279;19;20066;-69
2023/07/05 00:21:12;;;;;;;12.18;7.65;;;;;;;15.40;63.88;100732.34;7394419;19;20017;-69
2023/07/05 00:23:42;;;;;;;8.60;6.60;;;;;;;15.37;63.93;100728.06;7392864;19;20015;-69
2023/07/05 00:26:13;;;;;;;10.57;6.72;;;;;;;15.36;64.11;100726.31;7400531;19;20426;-69
2023/07/05 00:28:41;;;;;;;12.63;6.70;;;;;;;15.34;63.82;100720.22;7401932;19;20549;-70
2023/07/05 00:31:10;;;;;;;12.52;6.95;;;;;;;15.31;64.23;100717.72;7398836;19;20017;-68
2023/07/05 00:33:38;;;;;;;9.98;7.63;;;;;;;15.29;64.29;100720.44;7400504;19;20019;-68
2023/07/05 00:36:07;;;;;;;12.50;6.75;;;;;;;15.27;64.32;100718.78;7401957;19;20089;-68
2023/07/05 00:38:35;;;;;;;8.85;6.68;;;;;;;15.26;64.59;100714.44;7401868;19;20010;-69
2023/07/05 00:41:04;;;;;;;11.18;7.18;;;;;;;15.24;64.34;100708.34;7401313;19;20500;-67
2023/07/05 00:43:35;;;;;;;9.15;6.95;;;;;;;15.22;64.56;100699.63;7400353;19;20021;-68
2023/07/05 00:46:14;;;;;;;11.43;6.82;;;;;;;15.21;64.57;100695.25;7402142;19;20076;-68
2023/07/05 00:48:49;;;;;;;11.50;6.63;;;;;;;15.17;64.52;100694.53;7401969;19;20018;-68
2023/07/05 00:51:22;;;;;;;8.65;6.40;;;;;;;15.16;64.75;100692.81;7398399;19;20011;-68
2023/07/05 00:53:50;;;;;;;9.27;6.50;;;;;;;15.11;64.82;100689.50;7398873;19;20018;-68
2023/07/05 00:56:25;;;;;;;9.02;6.55;;;;;;;15.09;64.94;100697.50;7401248;19;20441;-68
2023/07/05 00:58:57;;;;;;;10.60;6.32;;;;;;;15.07;65.23;100696.69;7400869;19;20021;-68
2023/07/05 01:01:27;;;;;;;10.60;7.20;;;;;;;15.05;65.03;100685.34;7401566;19;20085;-68
2023/07/05 01:03:58;;;;;;;9.68;7.05;;;;;;;15.03;65.03;100679.25;7399023;19;20485;-68
2023/07/05 01:06:27;;;;;;;10.63;6.90;;;;;;;15.03;65.40;100675.75;7401351;19;20022;-68
2023/07/05 01:08:56;;;;;;;9.50;6.55;;;;;;;15.02;65.25;100674.03;7400874;19;20077;-68
2023/07/05 01:11:33;;;;;;;12.65;6.60;;;;;;;14.99;65.10;100672.38;7397728;19;20021;-68
2023/07/05 01:14:10;;;;;;;12.32;6.65;;;;;;;14.98;65.07;100668.00;7398616;19;20014;-68
2023/07/05 01:16:51;;;;;;;11.85;7.35;;;;;;;14.98;65.33;100668.84;7399568;19;20377;-68
2023/07/05 01:19:48;;;;;;;7.57;6.63;;;;;;;14.96;65.44;100654.00;7400928;19;20082;-68
2023/07/05 01:22:31;;;;;;;14.77;6.63;;;;;;;14.96;65.29;100656.63;7400014;19;20369;-68
2023/07/05 01:25:20;;;;;;;11.07;6.90;;;;;;;14.96;65.24;100656.63;7400546;19;20014;-68
2023/07/05 01:28:12;;;;;;;7.82;6.80;;;;;;;14.95;65.45;100654.91;7400694;19;20011;-68
2023/07/05 01:31:06;;;;;;;9.80;6.68;;;;;;;14.95;65.22;100657.56;7398933;19;20011;-68
2023/07/05 01:33:43;;;;;;;9.53;6.97;;;;;;;14.95;65.06;100657.56;7399162;19;20018;-68
2023/07/05 01:36:13;;;;;;;9.55;7.15;;;;;;;14.94;65.37;100659.34;7399382;19;20011;-68
2023/07/05 01:38:42;;;;;;;8.60;6.50;;;;;;;14.94;65.48;100645.28;7399084;19;20526;-68
2023/07/05 01:41:10;;;;;;;12.60;7.00;;;;;;;14.94;65.34;100647.94;7397392;19;20023;-68
2023/07/05 01:43:42;;;;;;;8.70;6.70;;;;;;;14.93;65.18;100643.56;7398427;19;20074;-68
2023/07/05 01:46:28;;;;;;;9.20;6.15;;;;;;;14.92;65.47;100639.19;7400096;19;20082;-68
2023/07/05 01:49:17;;;;;;;9.25;6.28;;;;;;;14.91;65.20;100634.84;7399935;19;20070;-68
2023/07/05 01:51:51;;;;;;;9.30;6.68;;;;;;;14.90;65.36;100634.00;7399902;19;20010;-68
2023/07/05 01:54:25;;;;;;;9.80;6.32;;;;;;;14.89;65.04;100634.91;7398546;19;20086;-69
2023/07/05 01:56:58;;;;;;;9.52;6.05;;;;;;;14.90;65.02;100639.28;7398486;19;20031;-69
2023/07/05 01:59:36;;;;;;;11.05;6.75;;;;;;;14.89;65.02;100626.97;7401155;19;20014;-69
2023/07/05 02:02:07;;;;;;;8.95;6.30;;;;;;;14.89;65.12;100621.69;7396934;19;20532;-68
2023/07/05 02:04:39;;;;;;;9.00;6.07;;;;;;;14.90;64.93;100619.91;7396833;19;20090;-68
2023/07/05 02:07:08;;;;;;;10.60;6.20;;;;;;;14.89;64.92;100605.84;7398669;19;20079;-68
2023/07/05 02:09:42;;;;;;;9.68;6.22;;;;;;;14.89;64.75;100599.72;7396595;19;20082;-68
2023/07/05 02:12:11;;;;;;;8.27;5.82;;;;;;;14.86;64.96;100594.56;7399168;19;20018;-69
2023/07/05 02:14:40;;;;;;;10.85;6.20;;;;;;;14.87;64.72;100585.72;7396213;19;20462;-68
2023/07/05 02:17:08;;;;;;;10.95;6.72;;;;;;;14.88;64.78;100584.78;7397161;19;20029;-68
2023/07/05 02:19:39;;;;;;;15.35;6.80;;;;;;;14.88;64.69;100584.78;7396298;19;20090;-68
2023/07/05 02:22:08;;;;;;;9.20;6.25;;;;;;;14.88;64.51;100579.50;7398678;19;20018;-68
2023/07/05 02:24:36;;;;;;;9.63;6.88;;;;;;;14.89;64.50;100578.59;7396020;19;20090;-68
2023/07/05 02:27:05;;;;;;;9.50;5.82;;;;;;;14.88;64.52;100577.72;7398173;19;20011;-68
2023/07/05 02:29:34;;;;;;;11.10;7.07;;;;;;;14.87;64.62;100569.88;7397610;19;20173;-68
2023/07/05 02:32:02;;;;;;;9.40;5.85;;;;;;;14.86;64.87;100571.66;7397724;19;20366;-69
2023/07/05 02:34:31;;;;;;;10.98;7.03;;;;;;;14.85;64.94;100569.06;7395681;19;20014;-68
2023/07/05 02:37:02;;;;;;;9.45;6.38;;;;;;;14.82;64.74;100562.13;7397697;19;20017;-68
2023/07/05 02:39:30;;;;;;;10.10;6.50;;;;;;;14.82;64.89;100555.09;7396934;19;20502;-68
2023/07/05 02:41:59;;;;;;;9.32;6.50;;;;;;;14.82;65.13;100556.84;7397637;19;20014;-68
2023/07/05 02:44:27;;;;;;;10.30;6.30;;;;;;;14.80;64.94;100554.28;7395610;19;20422;-68
2023/07/05 02:46:56;;;;;;;7.72;6.57;;;;;;;14.79;65.00;100546.44;7397540;19;20086;-68
2023/07/05 02:49:24;;;;;;;10.13;6.28;;;;;;;14.78;65.19;100529.69;7392563;19;20019;-68
2023/07/05 02:51:53;;;;;;;9.00;6.50;;;;;;;14.77;65.08;100525.38;7395664;19;20033;-68
2023/07/05 02:54:24;;;;;;;11.68;6.88;;;;;;;14.77;65.12;100516.56;7395913;19;20074;-68
2023/07/05 02:56:53;;;;;;;11.60;6.82;;;;;;;14.77;65.31;100517.44;7397491;19;20078;-68
2023/07/05 02:59:21;;;;;;;11.40;7.53;;;;;;;14.78;65.28;100510.38;7396909;19;20481;-68
2023/07/05 03:01:56;;;;;;;11.80;5.68;;;;;;;14.76;64.98;100515.72;7396473;19;20376;-68
2023/07/05 03:04:24;;;;;;;9.88;5.45;;;;;;;14.77;65.06;100506.88;7395149;19;20537;-67
2023/07/05 03:06:53;;;;;;;10.40;7.22;;;;;;;14.78;65.13;100505.09;7397246;19;20082;-69
2023/07/05 03:09:24;;;;;;;12.45;6.68;;;;;;;14.79;65.03;100510.31;7396324;19;20078;-68
2023/07/05 03:11:52;;;;;;;11.52;7.07;;;;;;;14.80;64.99;100504.09;7395184;19;20028;-68
2023/07/05 03:14:20;;;;;;;12.27;6.70;;;;;;;14.80;65.08;100504.09;7394462;19;20019;-68
2023/07/05 03:16:55;;;;;;;14.60;6.95;;;;;;;14.82;65.01;100506.66;7396249;19;20082;-68
2023/07/05 03:19:24;;;;;;;9.90;6.40;;;;;;;14.83;65.02;100509.22;7396903;19;20015;-68
2023/07/05 03:21:52;;;;;;;8.00;5.57;;;;;;;14.85;65.07;100505.69;7396418;19;20067;-69
2023/07/05 03:24:23;;;;;;;9.82;6.63;;;;;;;14.85;64.89;100509.19;7393958;19;20477;-68
2023/07/05 03:26:53;;;;;;;12.00;6.63;;;;;;;14.86;65.06;100499.47;7396055;19;20078;-69
2023/07/05 03:29:22;;;;;;;8.50;6.15;;;;;;;14.87;64.98;100504.69;7396096;19;20081;-69
2023/07/05 03:31:50;;;;;;;8.65;5.53;;;;;;;14.88;64.72;100497.63;7394078;19;20078;-69
2023/07/05 03:34:19;;;;;;;9.05;6.50;;;;;;;14.89;64.81;100486.16;7394525;19;20018;-68
2023/07/05 03:36:47;;;;;;;10.73;6.25;;;;;;;14.90;65.14;100483.44;7395788;19;20078;-68
2023/07/05 03:39:16;;;;;;;11.85;7.10;;;;;;;14.91;64.87;100487.81;7396531;19;20414;-68
2023/07/05 03:41:47;;;;;;;10.20;6.78;;;;;;;14.93;64.97;100479.81;7395421;19;20506;-69
2023/07/05 03:44:16;;;;;;;10.75;6.50;;;;;;;14.95;65.03;100470.00;7394049;19;20533;-68
2023/07/05 03:46:44;;;;;;;12.55;7.50;;;;;;;14.96;64.85;100469.09;7395574;19;20015;-69
2023/07/05 03:49:13;;;;;;;10.38;6.53;;;;;;;14.97;64.91;100465.53;7395361;19;20010;-68
2023/07/05 03:51:41;;;;;;;10.45;6.35;;;;;;;15.01;64.68;100460.97;7393614;19;20086;-68
2023/07/05 03:54:10;;;;;;;11.25;6.72;;;;;;;15.01;64.82;100463.59;7393999;19;20011;-70
2023/07/05 03:56:39;;;;;;;11.88;6.93;;;;;;;15.02;64.72;100460.03;7395030;19;20081;-68
2023/07/05 03:59:11;;;;;;;8.93;6.30;;;;;;;15.04;64.64;100458.16;7394569;19;20074;-70
2023/07/05 04:01:39;;;;;;;10.15;6.32;;;;;;;15.05;64.62;100458.13;7394798;19;20018;-68
2023/07/05 04:04:08;;;;;;;11.63;6.57;;;;;;;15.09;64.52;100461.47;7393157;19;20429;-69
2023/07/05 04:06:36;;;;;;;8.68;6.03;;;;;;;15.12;64.44;100453.41;7394777;19;20102;-69
2023/07/05 04:09:05;;;;;;;11.85;6.68;;;;;;;15.17;64.65;100453.22;7394696;19;20018;-69
2023/07/05 04:11:33;;;;;;;9.77;5.60;;;;;;;15.22;64.36;100454.69;7393582;19;20018;-69
2023/07/05 04:14:02;;;;;;;9.90;5.80;;;;;;;15.27;64.37;100452.69;7393101;19;20422;-68
2023/07/05 04:16:33;;;;;;;8.63;6.07;;;;;;;15.35;64.35;100448.84;7393667;19;20545;-68
2023/07/05 04:19:01;;;;;;;19.33;11.85;;;;;;;15.42;63.88;100437.91;7393923;19;20082;-68
2023/07/05 04:21:30;;;;;;;11.57;7.43;;;;;;;15.49;63.86;100435.84;7394101;19;20085;-69
2023/07/05 04:24:00;;;;;;;14.48;7.70;;;;;;;15.57;63.80;100439.00;7393184;19;20106;-68
2023/07/05 04:26:30;;;;;;;13.27;8.02;;;;;;;15.66;63.69;100431.53;7392068;19;20015;-68
2023/07/05 04:28:59;;;;;;;11.80;7.18;;;;;;;15.71;63.42;100430.41;7394088;19;20584;-69
2023/07/05 04:31:29;;;;;;;10.30;5.72;;;;;;;15.78;63.11;100430.94;7393237;19;20078;-69
2023/07/05 04:34:01;;;;;;;9.60;5.68;;;;;;;15.83;62.97;100417.53;7392724;19;20477;-68
2023/07/05 04:36:30;;;;;;;8.02;6.32;;;;;;;15.89;62.84;100412.78;7394408;19;20022;-69
2023/07/05 04:39:00;;;;;;;9.18;5.90;;;;;;;15.94;62.89;100413.41;7394159;19;20015;-69
2023/07/05 04:41:29;;;;;;;9.68;6.20;;;;;;;16.01;62.75;100410.47;7393569;19;20015;-69
2023/07/05 04:43:58;;;;;;;13.38;6.30;;;;;;;16.05;62.58;100406.72;7392170;19;20082;-69
2023/07/05 04:46:26;;;;;;;10.77;5.93;;;;;;;16.10;62.32;100399.44;7393627;19;20018;-68
2023/07/05 04:48:55;;;;;;;10.65;6.22;;;;;;;16.17;62.11;100402.63;7393337;19;20091;-68
2023/07/05 04:51:26;;;;;;;12.20;6.53;;;;;;;16.23;61.95;100408.47;7392469;19;20082;-69
2023/07/05 04:53:54;;;;;;;9.48;5.88;;;;;;;16.32;61.45;100403.66;7392230;19;20032;-69
2023/07/05 04:56:23;;;;;;;9.93;6.30;;;;;;;16.40;60.81;100396.16;7393073;19;20026;-69
2023/07/05 04:58:51;;;;;;;8.57;6.15;;;;;;;16.50;60.70;100400.03;7393068;19;20031;-69
2023/07/05 05:01:21;;;;;;;12.63;6.78;;;;;;;16.59;60.38;100396.94;7393440;19;20032;-69
2023/07/05 05:03:49;;;;;;;14.43;6.40;;;;;;;16.70;59.92;100406.94;7391093;19;20022;-69
2023/07/05 05:06:18;;;;;;;9.25;6.00;;;;;;;16.83;59.75;100403.63;7392643;19;20091;-68
2023/07/05 05:08:49;;;;;;;10.52;6.15;;;;;;;16.96;59.39;100399.44;7392383;19;20364;-69
2023/07/05 05:11:17;;;;;;;9.55;6.25;;;;;;;17.08;59.13;100398.75;7392188;19;20031;-69
2023/07/05 05:13:46;;;;;;;10.80;6.97;;;;;;;17.19;58.36;100389.38;7398208;19;20137;-69
2023/07/05 05:16:14;;;;;;;15.05;7.53;;;;;;;17.28;58.08;100372.09;7398252;19;20078;-68
2023/07/05 05:18:43;;;;;;;11.70;7.72;;;;;;;17.38;58.25;100381.25;7397316;19;20506;-69
2023/07/05 05:21:11;;;;;;;12.93;7.40;;;;;;;17.48;57.64;100379.78;7398661;19;20505;-69
2023/07/05 05:23:40;;;;;;;9.23;7.10;;;;;;;17.58;57.34;100365.06;7397255;19;20015;-68
2023/07/05 05:26:11;;;;;;;10.20;6.90;;;;;;;17.69;57.53;100360.94;7399637;19;20018;-67
2023/07/05 05:28:39;;;;;;;11.68;7.38;;;;;;;17.79;57.27;100362.09;7397348;19;20139;-67
2023/07/05 05:31:10;;;;;;;11.80;7.45;;;;;;;17.88;56.85;100355.41;7396894;19;20082;-68
2023/07/05 05:33:39;;;;;;;13.05;8.52;;;;;;;17.97;56.88;100354.91;7398620;19;20086;-68
2023/07/05 05:36:08;;;;;;;10.63;7.97;;;;;;;18.04;56.63;100344.78;7397376;19;20149;-68
2023/07/05 05:38:38;;;;;;;10.30;7.90;;;;;;;18.10;55.95;100339.13;7398821;19;20450;-67
2023/07/05 05:41:09;;;;;;;11.45;8.60;;;;;;;18.18;55.69;100331.53;7396639;19;20079;-66
2023/07/05 05:43:40;;;;;;;13.98;8.75;;;;;;;18.25;55.70;100324.06;7397323;19;20035;-67
2023/07/05 05:46:10;;;;;;;18.05;9.80;;;;;;;18.32;55.43;100322.72;7396710;19;20093;-66
2023/07/05 05:48:38;;;;;;;15.52;9.27;;;;;;;18.37;55.29;100318.00;7399018;19;20015;-68
2023/07/05 05:51:07;;;;;;;18.40;9.35;;;;;;;18.44;54.81;100317.59;7398453;19;20077;-66
2023/07/05 05:53:35;;;;;;;13.70;8.80;;;;;;;18.50;54.76;100311.91;7396473;19;20022;-65
2023/07/05 05:56:04;;;;;;;14.88;9.70;;;;;;;18.56;54.70;100308.88;7396558;19;20098;-66
2023/07/05 05:58:32;;;;;;;12.20;8.95;;;;;;;18.63;54.31;100304.91;7395886;19;20031;-66
2023/07/05 06:01:06;;;;;;;12.23;8.82;;;;;;;18.70;54.19;100292.94;7398240;19;20031;-66
2023/07/05 06:03:35;;;;;;;12.77;9.15;;;;;;;18.79;54.09;100291.53;7396809;19;20030;-68
2023/07/05 06:06:03;;;;;;;15.10;9.50;;;;;;;18.91;54.25;100289.06;7398006;19;20431;-66
2023/07/05 06:08:32;;;;;;;13.38;9.85;;;;;;;19.02;54.11;100289.22;7396332;19;20095;-67
2023/07/05 13:04:05;;;;;;;6.68;1.60;;;;;;;25.88;42.73;100255.06;6288979;19;22226934;-66
2023/07/05 13:06:36;;;;;;;3.50;1.40;;;;;;;25.97;43.53;100256.03;7435911;19;20018;-66
2023/07/05 13:09:07;;;;;;;7.15;1.50;;;;;;;25.97;42.92;100259.59;7433436;19;20014;-68
2023/07/05 13:11:36;;;;;;;2.95;1.50;;;;;;;25.93;42.69;100260.88;7435613;19;20015;-67
2023/07/05 13:14:08;;;;;;;3.30;1.50;;;;;;;25.89;42.19;100253.25;7427096;19;20010;-68
2023/07/05 13:16:51;;;;;;;3.58;1.58;;;;;;;25.75;41.38;100254.56;7426511;19;20018;-67
2023/07/05 13:19:22;;;;;;;6.65;1.63;;;;;;;25.57;42.15;100278.63;7426657;19;20015;-68
2023/07/05 13:21:52;;;;;;;3.17;1.70;;;;;;;25.46;42.14;100269.69;7425467;19;20021;-67
2023/07/05 13:24:35;;;;;;;7.55;1.63;;;;;;;25.40;42.07;100264.03;7426093;19;20085;-67
2023/07/05 13:27:04;;;;;;;;;;;;;;;25.39;41.43;100262.34;7431226;19;20022;-67
2023/07/05 13:29:35;;;;;;;3.50;1.90;;;;;;;25.42;42.18;100265.59;7427469;19;19943;-64
2023/07/05 13:32:05;;;;;;;3.38;2.40;;;;;;;25.46;41.05;100282.28;7429830;19;20020;-64
2023/07/05 13:34:36;;;;;;;4.03;2.00;;;;;;;25.53;40.64;100275.38;7426475;19;20038;-67
2023/07/05 13:37:17;;;;;;;5.13;2.35;;;;;;;25.54;38.34;100303.91;7429502;19;20033;-66
2023/07/05 13:39:46;;;;;;;6.82;2.47;;;;;;;25.52;39.29;100271.81;7426447;19;20431;-65
2023/07/05 13:42:15;;;;;;;5.28;2.75;;;;;;;25.53;38.74;100254.72;7429663;19;20490;-68
2023/07/05 13:44:46;;;;;;;5.50;2.60;;;;;;;25.63;39.00;100284.25;7426196;19;20022;-66
2023/07/05 13:47:15;;;;;;;3.72;2.70;;;;;;;25.73;37.56;100286.94;7426476;19;20014;-67
2023/07/05 13:49:46;;;;;;;5.10;2.88;;;;;;;25.84;36.31;100283.22;7426176;19;20010;-65
2023/07/05 13:52:18;;;;;;;5.25;3.10;;;;;;;25.93;36.23;100276.16;7428564;19;20438;-65
2023/07/05 13:54:48;;;;;;;4.45;3.03;;;;;;;25.96;35.87;100290.13;7425093;19;20392;-64
2023/07/05 13:57:17;;;;;;;6.35;3.13;;;;;;;25.98;35.26;100277.41;7425906;19;20035;-65
2023/07/05 13:59:46;;;;;;;6.40;3.28;;;;;;;26.10;34.36;100298.78;7427627;19;20352;-67
2023/07/05 14:02:30;;;;;;;6.18;3.05;;;;;;;26.24;32.33;100292.94;7426556;19;20014;-66
2023/07/05 14:05:03;;;;;;;;;;;;;;;26.33;32.09;100307.34;7400619;19;20031;-64
2023/07/05 14:07:32;;;;;;;9.18;3.40;;;;;;;26.46;33.29;100286.34;7399728;19;19915;-65
2023/07/05 14:10:01;;;;;;;9.95;2.42;;;;;;;26.60;32.85;100289.53;7399904;19;20031;-66
2023/07/05 14:12:30;;;;;;;7.50;2.67;;;;;;;26.66;30.68;100305.94;7397713;19;20078;-65
2023/07/05 14:14:59;;;;;;;7.32;2.65;;;;;;;26.75;30.72;100303.38;7396687;19;20415;-67
2023/07/05 14:17:28;;;;;;;6.00;2.58;;;;;;;26.88;30.83;100294.94;7396580;19;20019;-66
2023/07/05 14:19:56;;;;;;;12.02;3.10;;;;;;;26.99;30.21;100297.41;7397299;19;20062;-65
2023/07/05 14:22:27;;;;;;;7.28;2.35;;;;;;;26.94;27.99;100332.88;7397062;19;20445;-66
2023/07/05 14:24:56;;;;;;;4.38;2.47;;;;;;;26.90;28.76;100325.25;7396754;19;20014;-65
2023/07/05 14:27:26;;;;;;;5.38;2.70;;;;;;;26.85;28.84;100323.00;7397066;19;20512;-65
2023/07/05 14:29:56;;;;;;;5.45;2.33;;;;;;;26.94;28.60;100348.16;7396652;19;20059;-65
2023/07/05 14:32:25;;;;;;;6.20;2.47;;;;;;;26.97;28.93;100321.81;7402755;19;20019;-68
2023/07/05 14:34:53;;;;;;;3.83;2.13;;;;;;;27.02;28.46;100348.28;7400404;19;20019;-65
2023/07/05 14:37:21;;;;;;;7.20;2.05;;;;;;;27.03;27.90;100357.19;7401386;19;20011;-64
2023/07/05 14:39:53;;;;;;;3.67;2.20;;;;;;;26.98;27.41;100336.97;7402267;19;20032;-65
2023/07/05 14:42:22;;;;;;;2.05;1.50;;;;;;;27.06;27.70;100352.34;7402396;19;20493;-65
2023/07/05 14:44:50;;;;;;;5.80;2.25;;;;;;;27.08;27.15;100377.28;7401819;19;20010;-64
2023/07/05 14:47:19;;;;;;;4.47;1.98;;;;;;;27.00;27.70;100374.50;7404298;19;20023;-66
2023/07/05 14:49:47;;;;;;;3.90;2.03;;;;;;;26.84;27.48;100369.75;7404094;19;20453;-65
2023/07/05 14:52:16;;;;;;;5.05;2.08;;;;;;;26.75;27.90;100355.31;7403107;19;20028;-65
2023/07/05 14:54:44;;;;;;;2.47;2.03;;;;;;;26.72;28.14;100355.59;7402741;19;20447;-65
2023/07/05 14:57:15;;;;;;;6.22;2.13;;;;;;;26.77;27.95;100368.66;7402606;19;20354;-64
2023/07/05 14:59:44;;;;;;;6.97;2.08;;;;;;;26.78;28.32;100365.81;7406302;19;20019;-65
2023/07/05 15:02:20;;;;;;;5.00;1.88;;;;;;;26.88;28.00;100364.91;7401871;19;20021;-65
2023/07/05 15:04:49;;;;;;;3.92;1.90;;;;;;;26.94;27.96;100389.41;7402152;19;20028;-65
2023/07/05 15:07:21;;;;;;;4.00;2.05;;;;;;;26.95;27.59;100382.16;7401488;19;20027;-65
2023/07/05 15:09:49;;;;;;;7.85;2.10;;;;;;;26.94;27.27;100385.84;7405031;19;20032;-65
2023/07/05 15:12:23;;;;;;;5.30;1.95;;;;;;;26.91;26.60;100396.94;7401304;19;20015;-65
2023/07/05 15:14:51;;;;;;;4.55;1.70;;;;;;;26.91;27.22;100387.00;7398294;19;20022;-64
2023/07/05 15:17:20;;;;;;;2.80;1.70;;;;;;;26.90;27.46;100388.00;7401901;19;20035;-65
2023/07/05 15:19:52;;;;;;;2.97;1.80;;;;;;;26.75;27.42;100392.16;7403031;19;20021;-64
2023/07/05 15:22:20;;;;;;;8.00;2.00;;;;;;;26.56;27.92;100398.44;7402024;19;20015;-65
2023/07/05 15:24:49;;;;;;;14.10;2.75;;;;;;;26.51;28.44;100396.16;7398813;19;20019;-66
2023/07/05 15:27:17;;;;;;;3.53;1.50;;;;;;;26.62;28.64;100409.44;7396942;19;20039;-66
2023/07/05 15:29:48;;;;;;;3.83;1.40;;;;;;;26.67;28.05;100398.25;7396642;19;20501;-66
2023/07/05 15:32:18;;;;;;;3.00;1.40;;;;;;;26.63;27.75;100400.38;7395337;19;20038;-66
2023/07/05 15:34:47;;;;;;;4.07;1.50;;;;;;;26.58;27.62;100394.59;7395362;19;20042;-66
2023/07/05 15:37:15;;;;;;;5.20;1.20;;;;;;;26.51;27.75;100417.69;7395474;19;20384;-67
2023/07/05 15:39:44;;;;;;;4.68;1.30;;;;;;;26.37;27.46;100412.78;7396465;19;20035;-67
2023/07/05 15:42:13;;;;;;;1.70;1.10;;;;;;;26.34;27.64;100395.94;7394947;19;20025;-66
2023/07/05 15:44:42;;;;;;;7.75;1.30;;;;;;;26.40;27.67;100418.72;7393900;19;20025;-67
2023/07/05 15:47:13;;;;;;;3.58;1.33;;;;;;;26.36;26.91;100433.41;7394366;19;20026;-67
2023/07/05 15:49:41;;;;;;;1.95;1.30;;;;;;;26.39;27.51;100451.97;7395512;19;20387;-67
2023/07/05 15:52:10;;;;;;;3.65;1.30;;;;;;;26.39;27.26;100416.16;7393882;19;20026;-66
2023/07/05 15:54:39;;;;;;;1.73;1.05;;;;;;;26.41;27.70;100441.06;7393396;19;20494;-67
2023/07/05 15:57:08;;;;;;;4.43;1.30;;;;;;;26.45;27.34;100453.22;7392996;19;20470;-67
2023/07/05 15:59:36;;;;;;;3.45;1.10;;;;;;;26.39;27.69;100457.34;7393111;19;20015;-67
2023/07/05 16:02:08;;;;;;;4.35;1.52;;;;;;;26.30;27.64;100444.78;7392922;19;20011;-67
2023/07/05 16:04:40;;;;;;;3.78;1.20;;;;;;;26.26;27.94;100467.53;7393282;19;20366;-67
2023/07/05 16:07:09;;;;;;;3.08;1.52;;;;;;;26.23;27.35;100457.09;7395685;19;20082;-67
2023/07/05 16:09:37;;;;;;;1.33;1.00;;;;;;;26.23;27.67;100466.00;7394898;19;20027;-67
2023/07/05 16:12:06;;;;;;;6.70;2.13;;;;;;;26.12;27.19;100468.81;7395468;19;20039;-67
2023/07/05 16:14:35;;;;;;;2.42;1.58;;;;;;;26.15;27.55;100479.31;7393145;19;20031;-67
2023/07/05 16:17:03;;;;;;;2.15;1.20;;;;;;;26.10;27.42;100511.97;7394970;19;20510;-67
2023/07/05 16:19:32;;;;;;;2.00;1.30;;;;;;;26.00;27.41;100476.16;7393547;19;20035;-66
2023/07/05 16:22:03;;;;;;;3.65;1.40;;;;;;;25.95;27.52;100475.72;7393038;19;20035;-66
2023/07/05 16:24:32;;;;;;;2.25;1.30;;;;;;;25.99;27.64;100480.66;7392984;19;20027;-66
2023/07/05 16:27:00;;;;;;;1.60;1.33;;;;;;;26.01;26.87;100519.00;7394578;19;20022;-66
2023/07/05 16:29:29;;;;;;;3.45;1.42;;;;;;;26.05;27.62;100495.44;7394412;19;20010;-66
2023/07/05 16:31:57;;;;;;;2.47;1.30;;;;;;;26.00;27.76;100495.81;7393862;19;20374;-68
2023/07/05 16:34:27;;;;;;;2.90;1.05;;;;;;;26.02;27.47;100514.47;7393888;19;20026;-65
2023/07/05 16:36:55;;;;;;;1.73;1.13;;;;;;;25.93;26.53;100509.94;7394797;19;20019;-65
2023/07/05 16:39:26;;;;;;;1.55;0.95;;;;;;;25.83;26.56;100515.28;7394061;19;20453;-66
2023/07/05 16:41:55;;;;;;;3.55;1.13;;;;;;;25.78;26.86;100526.47;7394813;19;20022;-66
2023/07/05 16:44:26;;;;;;;3.00;0.90;;;;;;;25.76;27.04;100532.97;7392418;19;20430;-66
2023/07/05 16:46:55;;;;;;;2.17;1.08;;;;;;;25.63;27.16;100534.06;7392535;19;20437;-66
2023/07/05 16:49:24;;;;;;;2.80;1.10;;;;;;;25.58;27.43;100532.75;7392738;19;20019;-66
2023/07/05 16:51:52;;;;;;;1.80;1.20;;;;;;;25.51;27.05;100525.25;7394149;19;20371;-67
2023/07/05 16:54:21;;;;;;;2.85;1.48;;;;;;;25.55;27.33;100538.41;7392832;19;20023;-67
2023/07/05 16:56:52;;;;;;;3.05;1.23;;;;;;;25.69;27.02;100535.34;7392520;19;20090;-66
2023/07/05 16:59:22;;;;;;;3.95;1.20;;;;;;;25.84;27.34;100541.19;7394935;19;20090;-67
2023/07/05 17:01:50;;;;;;;3.55;1.70;;;;;;;25.91;27.37;100554.91;7392264;19;20022;-67
2023/07/05 17:04:20;;;;;;;2.95;0.90;;;;;;;25.75;27.08;100553.59;7392521;19;20530;-67
2023/07/05 17:06:48;;;;;;;3.33;1.35;;;;;;;25.59;27.54;100545.22;7393969;19;20038;-67
2023/07/05 17:09:17;;;;;;;1.80;1.23;;;;;;;25.49;27.34;100559.47;7392236;19;20018;-67
2023/07/05 17:11:46;;;;;;;3.08;1.38;;;;;;;25.50;27.38;100562.97;7392479;19;20026;-68
2023/07/05 17:14:17;;;;;;;3.17;1.38;;;;;;;25.52;27.61;100569.09;7391988;19;20496;-67
2023/07/05 17:16:45;;;;;;;1.63;1.02;;;;;;;25.53;27.66;100565.41;7391418;19;20514;-67
2023/07/05 17:19:14;;;;;;;2.70;1.67;;;;;;;25.46;27.43;100578.50;7392910;19;20477;-69
2023/07/05 17:21:43;;;;;;;2.30;1.50;;;;;;;25.30;27.70;100564.69;7392529;19;20026;-66
2023/07/05 17:24:11;;;;;;;1.73;1.35;;;;;;;25.18;28.13;100570.16;7390953;19;20019;-66
2023/07/05 17:26:40;;;;;;;3.15;1.23;;;;;;;25.16;27.85;100563.22;7391202;19;20038;-66
2023/07/05 17:29:08;;;;;;;2.08;1.35;;;;;;;25.20;28.35;100565.50;7391322;19;20015;-66
2023/07/05 17:31:40;;;;;;;3.85;1.80;;;;;;;25.24;28.26;100562.53;7392514;19;20477;-67
2023/07/05 17:34:09;;;;;;;3.30;1.30;;;;;;;25.20;27.79;100568.19;7390992;19;20010;-67
2023/07/05 17:36:37;;;;;;;2.15;1.30;;;;;;;25.15;28.02;100581.16;7390680;19;20019;-67
2023/07/05 17:39:06;;;;;;;4.70;2.03;;;;;;;25.10;28.45;100591.44;7396483;19;20015;-67
2023/07/05 17:41:34;;;;;;;2.25;1.40;;;;;;;24.99;28.21;100581.63;7397670;19;20019;-67
2023/07/05 17:44:03;;;;;;;2.35;1.33;;;;;;;24.83;28.84;100582.09;7397098;19;20022;-66
2023/07/05 17:46:33;;;;;;;2.75;1.50;;;;;;;24.67;28.57;100582.53;7397582;19;20015;-66
2023/07/05 17:49:06;;;;;;;3.53;1.42;;;;;;;24.56;28.90;100590.59;7399800;19;20517;-66
2023/07/05 17:51:36;;;;;;;3.78;1.50;;;;;;;24.49;29.16;100592.06;7400664;19;20086;-67
2023/07/05 17:54:07;;;;;;;3.70;1.75;;;;;;;24.45;29.00;100590.63;7398393;19;20019;-67
2023/07/05 17:56:36;;;;;;;2.83;1.75;;;;;;;24.44;29.10;100605.00;7399694;19;20485;-67
2023/07/05 17:59:04;;;;;;;1.67;1.30;;;;;;;24.32;29.26;100594.31;7399293;19;20372;-67
2023/07/05 18:01:33;;;;;;;6.80;2.00;;;;;;;24.26;29.83;100599.34;7396728;19;20018;-66
2023/07/05 18:04:04;;;;;;;3.28;1.77;;;;;;;24.16;29.56;100601.91;7397318;19;20015;-68
2023/07/05 18:06:33;;;;;;;2.03;1.67;;;;;;;24.01;30.16;100607.56;7397898;19;20019;-66
2023/07/05 18:09:02;;;;;;;3.58;1.90;;;;;;;23.85;30.32;100618.63;7399686;19;20022;-66
2023/07/05 18:11:37;;;;;;;3.00;1.30;;;;;;;23.71;30.08;100605.47;7399248;19;20018;-66
2023/07/05 18:14:05;;;;;;;2.83;1.85;;;;;;;23.59;30.50;100616.19;7397848;19;20086;-66
2023/07/05 18:16:34;;;;;;;4.25;1.50;;;;;;;23.52;30.21;100614.09;7399597;19;20021;-65
2023/07/05 18:19:05;;;;;;;3.50;1.58;;;;;;;23.50;30.37;100614.22;7399519;19;20023;-66
2023/07/05 18:21:38;;;;;;;4.40;1.75;;;;;;;23.50;30.77;100614.22;7399816;19;20363;-66
2023/07/05 18:24:09;;;;;;;2.92;1.65;;;;;;;23.55;30.49;100620.06;7397591;19;20018;-67
2023/07/05 18:26:40;;;;;;;3.03;1.83;;;;;;;23.62;30.99;100627.63;7398620;19;20014;-68
2023/07/05 18:29:09;;;;;;;4.82;1.33;;;;;;;23.68;30.80;100629.81;7398557;19;20014;-67